sensor_id;sensor_type;location;lat;lon;timestamp;pressure;altitude;pressure_sealevel;temperature;humidity
72210;BME280;60113;48.762;12.302;2023-08-21T00:01:41;97725.47;;;17.08;58.07
72210;BME280;60113;48.762;12.302;2023-08-21T00:04:13;97736.47;;;17.03;58.50
72210;BME280;60113;48.762;12.302;2023-08-21T00:06:38;97737.78;;;16.99;58.39
72210;BME280;60113;48.762;12.302;2023-08-21T00:09:15;97733.72;;;16.95;58.10
72210;BME280;60113;48.762;12.302;2023-08-21T00:11:41;97732.34;;;16.91;56.96
72210;BME280;60113;48.762;12.302;2023-08-21T00:14:21;97736.28;;;16.86;58.93
72210;BME280;60113;48.762;12.302;2023-08-21T00:16:52;97734.72;;;16.84;59.49
72210;BME280;60113;48.762;12.302;2023-08-21T00:19:18;97734.34;;;16.79;60.12
72210;BME280;60113;48.762;12.302;2023-08-21T00:21:46;97745.91;;;16.78;61.49
72210;BME280;60113;48.762;12.302;2023-08-21T00:24:11;97739.94;;;16.75;61.05
72210;BME280;60113;48.762;12.302;2023-08-21T00:26:39;97743.56;;;16.74;57.92
72210;BME280;60113;48.762;12.302;2023-08-21T00:29:07;97739.09;;;16.75;61.24
72210;BME280;60113;48.762;12.302;2023-08-21T00:31:32;97739.94;;;16.75;66.81
72210;BME280;60113;48.762;12.302;2023-08-21T00:34:00;97740.63;;;16.78;61.86
72210;BME280;60113;48.762;12.302;2023-08-21T00:36:38;97739.66;;;16.79;60.16
72210;BME280;60113;48.762;12.302;2023-08-21T00:39:22;97737.97;;;16.78;58.64
72210;BME280;60113;48.762;12.302;2023-08-21T00:41:47;97726.53;;;16.77;61.60
72210;BME280;60113;48.762;12.302;2023-08-21T00:44:12;97738.09;;;16.76;60.06
72210;BME280;60113;48.762;12.302;2023-08-21T00:46:38;97740.09;;;16.74;62.26
72210;BME280;60113;48.762;12.302;2023-08-21T00:49:12;97739.09;;;16.75;63.23
72210;BME280;60113;48.762;12.302;2023-08-21T00:51:37;97737.28;;;16.75;60.45
72210;BME280;60113;48.762;12.302;2023-08-21T00:54:12;97720.53;;;16.75;60.97
72210;BME280;60113;48.762;12.302;2023-08-21T00:56:40;97718.00;;;16.73;61.21
72210;BME280;60113;48.762;12.302;2023-08-21T00:59:24;97722.63;;;16.71;59.37
72210;BME280;60113;48.762;12.302;2023-08-21T01:01:49;97716.78;;;16.68;60.91
72210;BME280;60113;48.762;12.302;2023-08-21T01:04:18;97731.84;;;16.67;61.43
72210;BME280;60113;48.762;12.302;2023-08-21T01:06:48;97732.84;;;16.66;62.38
72210;BME280;60113;48.762;12.302;2023-08-21T01:12:46;97739.16;;;16.65;68.50
72210;BME280;60113;48.762;12.302;2023-08-21T01:15:20;97726.44;;;16.59;60.54
72210;BME280;60113;48.762;12.302;2023-08-21T01:17:45;97727.84;;;16.53;61.98
72210;BME280;60113;48.762;12.302;2023-08-21T01:20:17;97725.63;;;16.48;61.62
72210;BME280;60113;48.762;12.302;2023-08-21T01:22:45;97727.75;;;16.45;61.43
72210;BME280;60113;48.762;12.302;2023-08-21T01:25:11;97726.34;;;16.41;60.31
72210;BME280;60113;48.762;12.302;2023-08-21T01:27:46;97726.63;;;16.37;62.21
72210;BME280;60113;48.762;12.302;2023-08-21T01:30:22;97731.09;;;16.37;62.09
72210;BME280;60113;48.762;12.302;2023-08-21T01:32:59;97725.66;;;16.39;68.21
72210;BME280;60113;48.762;12.302;2023-08-21T01:35:26;97727.03;;;16.33;63.49
72210;BME280;60113;48.762;12.302;2023-08-21T01:37:52;97723.84;;;16.29;63.44
72210;BME280;60113;48.762;12.302;2023-08-21T01:40:22;97724.81;;;16.28;62.68
72210;BME280;60113;48.762;12.302;2023-08-21T01:42:48;97720.34;;;16.29;62.73
72210;BME280;60113;48.762;12.302;2023-08-21T01:45:16;97724.53;;;16.31;61.99
72210;BME280;60113;48.762;12.302;2023-08-21T01:47:41;97728.72;;;16.34;62.21
72210;BME280;60113;48.762;12.302;2023-08-21T01:50:07;97729.56;;;16.34;61.91
72210;BME280;60113;48.762;12.302;2023-08-21T01:52:33;97732.19;;;16.34;62.28
72210;BME280;60113;48.762;12.302;2023-08-21T01:54:59;97731.53;;;16.32;62.04
72210;BME280;60113;48.762;12.302;2023-08-21T01:57:24;97727.03;;;16.33;61.90
72210;BME280;60113;48.762;12.302;2023-08-21T01:59:50;97731.38;;;16.34;61.56
72210;BME280;60113;48.762;12.302;2023-08-21T02:02:15;97734.03;;;16.34;62.47
72210;BME280;60113;48.762;12.302;2023-08-21T02:04:43;97731.25;;;16.35;61.77
72210;BME280;60113;48.762;12.302;2023-08-21T02:07:11;97727.59;;;16.36;63.00
72210;BME280;60113;48.762;12.302;2023-08-21T02:09:37;97731.63;;;16.41;62.06
72210;BME280;60113;48.762;12.302;2023-08-21T02:12:05;97727.88;;;16.43;61.98
72210;BME280;60113;48.762;12.302;2023-08-21T02:14:33;97732.34;;;16.43;62.66
72210;BME280;60113;48.762;12.302;2023-08-21T02:16:58;97730.69;;;16.42;62.60
72210;BME280;60113;48.762;12.302;2023-08-21T02:19:24;97730.13;;;16.38;62.47
72210;BME280;60113;48.762;12.302;2023-08-21T02:21:50;97733.19;;;16.33;62.63
72210;BME280;60113;48.762;12.302;2023-08-21T02:24:15;97735.28;;;16.30;62.84
72210;BME280;60113;48.762;12.302;2023-08-21T02:26:40;97739.19;;;16.25;63.19
72210;BME280;60113;48.762;12.302;2023-08-21T02:29:08;97733.34;;;16.22;62.35
72210;BME280;60113;48.762;12.302;2023-08-21T02:31:33;97738.91;;;16.19;62.19
72210;BME280;60113;48.762;12.302;2023-08-21T02:33:59;97740.03;;;16.16;60.75
72210;BME280;60113;48.762;12.302;2023-08-21T02:36:43;97744.25;;;16.09;63.24
72210;BME280;60113;48.762;12.302;2023-08-21T02:39:08;97751.75;;;16.04;63.54
72210;BME280;60113;48.762;12.302;2023-08-21T02:41:39;97746.19;;;15.97;62.61
72210;BME280;60113;48.762;12.302;2023-08-21T02:44:04;97751.75;;;15.94;63.37
72210;BME280;60113;48.762;12.302;2023-08-21T02:46:38;97758.84;;;15.93;61.56
72210;BME280;60113;48.762;12.302;2023-08-21T02:49:15;97753.56;;;15.93;66.01
72210;BME280;60113;48.762;12.302;2023-08-21T02:51:41;97755.50;;;15.91;66.66
72210;BME280;60113;48.762;12.302;2023-08-21T02:54:19;97761.38;;;15.95;63.83
72210;BME280;60113;48.762;12.302;2023-08-21T02:56:44;97747.03;;;15.97;64.54
72210;BME280;60113;48.762;12.302;2023-08-21T02:59:10;97745.75;;;16.02;63.70
72210;BME280;60113;48.762;12.302;2023-08-21T03:01:37;97746.47;;;16.04;62.37
72210;BME280;60113;48.762;12.302;2023-08-21T03:04:15;97752.03;;;16.00;63.47
72210;BME280;60113;48.762;12.302;2023-08-21T03:06:43;97747.03;;;15.97;64.30
72210;BME280;60113;48.762;12.302;2023-08-21T03:09:20;97752.44;;;15.96;64.32
72210;BME280;60113;48.762;12.302;2023-08-21T03:11:45;97741.28;;;15.92;64.94
72210;BME280;60113;48.762;12.302;2023-08-21T03:14:25;97751.31;;;15.88;64.26
72210;BME280;60113;48.762;12.302;2023-08-21T03:16:59;97753.41;;;15.85;65.05
72210;BME280;60113;48.762;12.302;2023-08-21T03:19:25;97745.03;;;15.80;65.37
72210;BME280;60113;48.762;12.302;2023-08-21T03:21:53;97747.25;;;15.74;65.93
72210;BME280;60113;48.762;12.302;2023-08-21T03:24:21;97749.34;;;15.71;66.26
72210;BME280;60113;48.762;12.302;2023-08-21T03:26:52;97740.84;;;15.67;63.91
72210;BME280;60113;48.762;12.302;2023-08-21T03:29:18;97741.94;;;15.65;64.71
72210;BME280;60113;48.762;12.302;2023-08-21T03:31:55;97737.50;;;15.65;65.61
72210;BME280;60113;48.762;12.302;2023-08-21T03:34:23;97738.47;;;15.64;65.49
72210;BME280;60113;48.762;12.302;2023-08-21T03:36:49;97741.94;;;15.65;65.27
72210;BME280;60113;48.762;12.302;2023-08-21T03:39:23;97740.97;;;15.66;65.54
72210;BME280;60113;48.762;12.302;2023-08-21T03:41:48;97746.28;;;15.66;65.36
72210;BME280;60113;48.762;12.302;2023-08-21T03:44:14;97748.09;;;15.65;65.32
72210;BME280;60113;48.762;12.302;2023-08-21T03:46:39;97741.13;;;15.64;65.52
72210;BME280;60113;48.762;12.302;2023-08-21T03:49:10;97745.56;;;15.63;65.71
72210;BME280;60113;48.762;12.302;2023-08-21T03:51:36;97746.28;;;15.66;66.04
72210;BME280;60113;48.762;12.302;2023-08-21T03:54:10;97747.94;;;15.67;64.70
72210;BME280;60113;48.762;12.302;2023-08-21T03:56:42;97749.59;;;15.68;65.29
72210;BME280;60113;48.762;12.302;2023-08-21T03:59:07;97741.66;;;15.68;65.18
72210;BME280;60113;48.762;12.302;2023-08-21T04:01:38;97749.88;;;15.65;67.22
72210;BME280;60113;48.762;12.302;2023-08-21T04:04:04;97743.06;;;15.62;66.43
72210;BME280;60113;48.762;12.302;2023-08-21T04:06:32;97744.44;;;15.56;66.05
72210;BME280;60113;48.762;12.302;2023-08-21T04:09:00;97746.53;;;15.53;65.45
72210;BME280;60113;48.762;12.302;2023-08-21T04:11:29;97745.00;;;15.50;65.42
72210;BME280;60113;48.762;12.302;2023-08-21T04:13:54;97740.09;;;15.45;65.92
72210;BME280;60113;48.762;12.302;2023-08-21T04:16:19;97746.34;;;15.44;67.18
72210;BME280;60113;48.762;12.302;2023-08-21T04:18:49;97748.72;;;15.37;67.04
72210;BME280;60113;48.762;12.302;2023-08-21T04:21:17;97753.44;;;15.34;66.72
72210;BME280;60113;48.762;12.302;2023-08-21T04:23:49;97752.19;;;15.28;66.05
72210;BME280;60113;48.762;12.302;2023-08-21T04:26:29;97749.22;;;15.21;65.94
72210;BME280;60113;48.762;12.302;2023-08-21T04:28:54;97750.47;;;15.17;66.33
72210;BME280;60113;48.762;12.302;2023-08-21T04:31:19;97745.59;;;15.12;66.54
72210;BME280;60113;48.762;12.302;2023-08-21T04:33:45;97749.47;;;15.08;69.51
72210;BME280;60113;48.762;12.302;2023-08-21T04:36:17;97748.63;;;15.08;70.43
72210;BME280;60113;48.762;12.302;2023-08-21T04:38:45;97741.94;;;15.04;69.36
72210;BME280;60113;48.762;12.302;2023-08-21T04:41:13;97751.69;;;15.03;68.71
72210;BME280;60113;48.762;12.302;2023-08-21T04:43:47;97741.94;;;15.04;67.05
72210;BME280;60113;48.762;12.302;2023-08-21T04:46:15;97741.81;;;15.05;66.99
72210;BME280;60113;48.762;12.302;2023-08-21T04:48:40;97751.28;;;15.08;67.03
72210;BME280;60113;48.762;12.302;2023-08-21T04:51:09;97751.84;;;15.11;67.72
72210;BME280;60113;48.762;12.302;2023-08-21T04:53:43;97753.13;;;15.17;63.89
72210;BME280;60113;48.762;12.302;2023-08-21T04:56:09;97755.38;;;15.22;66.42
72210;BME280;60113;48.762;12.302;2023-08-21T04:58:34;97759.28;;;15.28;68.19
72210;BME280;60113;48.762;12.302;2023-08-21T05:01:04;97759.72;;;15.33;67.51
72210;BME280;60113;48.762;12.302;2023-08-21T05:03:29;97768.22;;;15.36;68.66
72210;BME280;60113;48.762;12.302;2023-08-21T05:06:01;97767.81;;;15.41;68.11
72210;BME280;60113;48.762;12.302;2023-08-21T05:08:28;97769.91;;;15.47;67.83
72210;BME280;60113;48.762;12.302;2023-08-21T05:10:55;97760.75;;;15.52;66.96
72210;BME280;60113;48.762;12.302;2023-08-21T05:13:21;97766.44;;;15.57;67.51
72210;BME280;60113;48.762;12.302;2023-08-21T05:15:54;97770.25;;;15.64;67.80
72210;BME280;60113;48.762;12.302;2023-08-21T05:18:22;97768.59;;;15.73;67.76
72210;BME280;60113;48.762;12.302;2023-08-21T05:20:55;97774.72;;;15.83;67.96
72210;BME280;60113;48.762;12.302;2023-08-21T05:23:24;97774.03;;;15.91;67.92
72210;BME280;60113;48.762;12.302;2023-08-21T05:25:49;97770.59;;;16.00;67.54
72210;BME280;60113;48.762;12.302;2023-08-21T05:28:14;97773.94;;;16.12;67.53
72210;BME280;60113;48.762;12.302;2023-08-21T05:30:40;97769.78;;;16.20;67.69
72210;BME280;60113;48.762;12.302;2023-08-21T05:33:05;97772.53;;;16.28;67.34
72210;BME280;60113;48.762;12.302;2023-08-21T05:35:35;97775.06;;;16.40;67.59
72210;BME280;60113;48.762;12.302;2023-08-21T05:38:06;97778.53;;;16.50;66.77
72210;BME280;60113;48.762;12.302;2023-08-21T05:40:31;97773.78;;;16.64;66.79
72210;BME280;60113;48.762;12.302;2023-08-21T05:42:57;97771.63;;;16.77;66.66
72210;BME280;60113;48.762;12.302;2023-08-21T05:45:23;97774.81;;;16.91;66.58
72210;BME280;60113;48.762;12.302;2023-08-21T05:47:48;97768.91;;;17.07;66.27
72210;BME280;60113;48.762;12.302;2023-08-21T05:50:13;97769.28;;;17.22;66.15
72210;BME280;60113;48.762;12.302;2023-08-21T05:52:39;97771.38;;;17.46;66.72
72210;BME280;60113;48.762;12.302;2023-08-21T05:55:05;97770.38;;;17.75;66.73
72210;BME280;60113;48.762;12.302;2023-08-21T05:57:39;97766.16;;;18.19;66.71
72210;BME280;60113;48.762;12.302;2023-08-21T06:00:05;97766.41;;;18.79;66.83
72210;BME280;60113;48.762;12.302;2023-08-21T06:02:36;97768.28;;;19.48;67.75
72210;BME280;60113;48.762;12.302;2023-08-21T06:05:01;97775.44;;;20.16;68.58
72210;BME280;60113;48.762;12.302;2023-08-21T06:07:32;97770.06;;;20.74;68.54
72210;BME280;60113;48.762;12.302;2023-08-21T06:10:00;97777.47;;;21.29;68.66
72210;BME280;60113;48.762;12.302;2023-08-21T06:12:39;97769.03;;;21.89;68.84
72210;BME280;60113;48.762;12.302;2023-08-21T06:15:14;97774.59;;;22.50;68.83
72210;BME280;60113;48.762;12.302;2023-08-21T06:17:39;97767.94;;;22.99;68.82
72210;BME280;60113;48.762;12.302;2023-08-21T06:20:08;97768.13;;;23.43;69.07
72210;BME280;60113;48.762;12.302;2023-08-21T06:22:43;97768.78;;;23.82;69.06
72210;BME280;60113;48.762;12.302;2023-08-21T06:25:08;97764.41;;;24.18;69.44
72210;BME280;60113;48.762;12.302;2023-08-21T06:27:33;97773.19;;;24.55;69.24
72210;BME280;60113;48.762;12.302;2023-08-21T06:29:59;97776.31;;;24.88;68.97
72210;BME280;60113;48.762;12.302;2023-08-21T06:32:24;97769.28;;;25.15;68.97
72210;BME280;60113;48.762;12.302;2023-08-21T06:34:50;97767.13;;;25.39;68.99
72210;BME280;60113;48.762;12.302;2023-08-21T06:37:21;97778.59;;;25.62;69.11
72210;BME280;60113;48.762;12.302;2023-08-21T06:39:47;97766.44;;;25.66;69.04
72210;BME280;60113;48.762;12.302;2023-08-21T06:42:15;97767.06;;;25.75;68.86
72210;BME280;60113;48.762;12.302;2023-08-21T06:44:46;97766.91;;;25.90;69.32
72210;BME280;60113;48.762;12.302;2023-08-21T06:47:15;97771.50;;;26.03;69.51
72210;BME280;60113;48.762;12.302;2023-08-21T06:49:40;97772.31;;;26.24;69.14
72210;BME280;60113;48.762;12.302;2023-08-21T06:52:05;97764.28;;;26.51;68.72
72210;BME280;60113;48.762;12.302;2023-08-21T06:54:31;97766.75;;;26.79;68.68
72210;BME280;60113;48.762;12.302;2023-08-21T06:56:59;97760.72;;;27.04;68.66
72210;BME280;60113;48.762;12.302;2023-08-21T06:59:24;97766.28;;;27.23;68.19
72210;BME280;60113;48.762;12.302;2023-08-21T07:01:49;97763.31;;;27.38;68.51
72210;BME280;60113;48.762;12.302;2023-08-21T07:04:19;97761.56;;;27.57;67.82
72210;BME280;60113;48.762;12.302;2023-08-21T07:06:44;97763.41;;;27.64;66.17
72210;BME280;60113;48.762;12.302;2023-08-21T07:09:19;97763.84;;;27.61;66.04
72210;BME280;60113;48.762;12.302;2023-08-21T07:11:44;97759.72;;;27.51;65.18
72210;BME280;60113;48.762;12.302;2023-08-21T07:14:10;97761.34;;;27.59;65.25
72210;BME280;60113;48.762;12.302;2023-08-21T07:16:43;97765.91;;;27.72;65.46
72210;BME280;60113;48.762;12.302;2023-08-21T07:19:09;97758.81;;;27.78;64.57
72210;BME280;60113;48.762;12.302;2023-08-21T07:21:43;97766.72;;;27.73;63.87
72210;BME280;60113;48.762;12.302;2023-08-21T07:24:08;97767.13;;;27.69;63.90
72210;BME280;60113;48.762;12.302;2023-08-21T07:26:34;97768.94;;;27.82;63.74
72210;BME280;60113;48.762;12.302;2023-08-21T07:28:59;97769.31;;;27.93;63.72
72210;BME280;60113;48.762;12.302;2023-08-21T07:31:33;97770.31;;;27.99;63.28
72210;BME280;60113;48.762;12.302;2023-08-21T07:34:14;97764.72;;;28.00;62.86
72210;BME280;60113;48.762;12.302;2023-08-21T07:36:42;97767.84;;;27.97;62.48
72210;BME280;60113;48.762;12.302;2023-08-21T07:39:13;97769.91;;;27.95;62.21
72210;BME280;60113;48.762;12.302;2023-08-21T07:41:39;97767.34;;;28.07;61.66
72210;BME280;60113;48.762;12.302;2023-08-21T07:44:06;97775.41;;;28.14;61.30
72210;BME280;60113;48.762;12.302;2023-08-21T07:46:32;97771.56;;;28.28;61.17
72210;BME280;60113;48.762;12.302;2023-08-21T07:49:00;97773.81;;;28.38;61.01
72210;BME280;60113;48.762;12.302;2023-08-21T07:51:28;97764.34;;;28.54;60.95
72210;BME280;60113;48.762;12.302;2023-08-21T07:53:53;97775.03;;;28.68;60.71
72210;BME280;60113;48.762;12.302;2023-08-21T07:56:19;97780.00;;;28.90;60.71
72210;BME280;60113;48.762;12.302;2023-08-21T07:58:44;97776.13;;;29.04;60.20
72210;BME280;60113;48.762;12.302;2023-08-21T08:01:12;97776.81;;;29.37;59.81
72210;BME280;60113;48.762;12.302;2023-08-21T08:03:40;97772.31;;;29.68;60.11
72210;BME280;60113;48.762;12.302;2023-08-21T08:06:06;97768.06;;;29.73;58.94
72210;BME280;60113;48.762;12.302;2023-08-21T08:08:40;97769.78;;;29.86;59.05
72210;BME280;60113;48.762;12.302;2023-08-21T08:11:08;97772.34;;;29.80;58.82
72210;BME280;60113;48.762;12.302;2023-08-21T08:13:52;97777.88;;;29.74;58.55
72210;BME280;60113;48.762;12.302;2023-08-21T08:16:17;97776.03;;;29.86;58.47
72210;BME280;60113;48.762;12.302;2023-08-21T08:18:43;97762.75;;;29.97;57.97
72210;BME280;60113;48.762;12.302;2023-08-21T08:21:08;97767.69;;;30.30;58.01
72210;BME280;60113;48.762;12.302;2023-08-21T08:23:35;97763.38;;;30.65;57.48
72210;BME280;60113;48.762;12.302;2023-08-21T08:26:03;97762.88;;;30.44;56.81
72210;BME280;60113;48.762;12.302;2023-08-21T08:28:47;97757.59;;;30.62;56.69
72210;BME280;60113;48.762;12.302;2023-08-21T08:31:18;97767.13;;;30.76;54.26
72210;BME280;60113;48.762;12.302;2023-08-21T08:33:47;97766.44;;;31.05;56.42
72210;BME280;60113;48.762;12.302;2023-08-21T08:36:13;97768.81;;;30.89;55.41
72210;BME280;60113;48.762;12.302;2023-08-21T08:38:38;97767.72;;;31.14;55.52
72210;BME280;60113;48.762;12.302;2023-08-21T08:41:10;97774.63;;;31.34;54.85
72210;BME280;60113;48.762;12.302;2023-08-21T08:43:39;97766.25;;;31.48;53.83
72210;BME280;60113;48.762;12.302;2023-08-21T08:46:06;97768.22;;;31.64;54.75
72210;BME280;60113;48.762;12.302;2023-08-21T08:48:34;97763.75;;;31.87;54.48
72210;BME280;60113;48.762;12.302;2023-08-21T08:51:02;97771.72;;;32.06;54.45
72210;BME280;60113;48.762;12.302;2023-08-21T08:53:30;97768.28;;;32.28;53.91
72210;BME280;60113;48.762;12.302;2023-08-21T08:55:58;97767.84;;;32.19;53.76
72210;BME280;60113;48.762;12.302;2023-08-21T08:58:24;97758.28;;;32.16;53.41
72210;BME280;60113;48.762;12.302;2023-08-21T09:00:50;97763.69;;;31.99;53.23
72210;BME280;60113;48.762;12.302;2023-08-21T09:03:15;97765.84;;;31.97;53.04
72210;BME280;60113;48.762;12.302;2023-08-21T09:05:41;97766.94;;;32.13;52.72
72210;BME280;60113;48.762;12.302;2023-08-21T09:10:31;97757.97;;;32.47;52.14
72210;BME280;60113;48.762;12.302;2023-08-21T09:12:57;97758.13;;;32.75;51.81
72210;BME280;60113;48.762;12.302;2023-08-21T09:15:29;97759.88;;;32.47;50.53
72210;BME280;60113;48.762;12.302;2023-08-21T09:17:57;97755.94;;;32.37;51.07
72210;BME280;60113;48.762;12.302;2023-08-21T09:20:22;97763.00;;;32.38;51.28
72210;BME280;60113;48.762;12.302;2023-08-21T09:22:54;97760.06;;;32.57;44.02
72210;BME280;60113;48.762;12.302;2023-08-21T09:25:36;97763.16;;;32.49;48.92
72210;BME280;60113;48.762;12.302;2023-08-21T09:28:09;97759.72;;;32.53;50.08
72210;BME280;60113;48.762;12.302;2023-08-21T09:30:48;97758.56;;;32.49;43.76
72210;BME280;60113;48.762;12.302;2023-08-21T09:33:33;97756.31;;;32.80;49.47
72210;BME280;60113;48.762;12.302;2023-08-21T09:36:03;97754.19;;;33.05;49.55
72210;BME280;60113;48.762;12.302;2023-08-21T09:38:38;97753.88;;;33.01;44.26
72210;BME280;60113;48.762;12.302;2023-08-21T09:41:05;97758.81;;;33.04;49.33
72210;BME280;60113;48.762;12.302;2023-08-21T09:43:43;97755.81;;;33.23;47.33
72210;BME280;60113;48.762;12.302;2023-08-21T09:46:15;97757.97;;;33.43;48.92
72210;BME280;60113;48.762;12.302;2023-08-21T09:48:46;97746.75;;;33.62;48.24
72210;BME280;60113;48.762;12.302;2023-08-21T09:51:21;97748.47;;;33.68;48.34
72210;BME280;60113;48.762;12.302;2023-08-21T09:53:48;97741.44;;;33.50;48.20
72210;BME280;60113;48.762;12.302;2023-08-21T09:56:20;97745.84;;;33.79;45.71
72210;BME280;60113;48.762;12.302;2023-08-21T09:58:47;97746.38;;;34.09;43.93
72210;BME280;60113;48.762;12.302;2023-08-21T10:01:20;97748.38;;;33.86;47.45
72210;BME280;60113;48.762;12.302;2023-08-21T10:03:46;97744.94;;;34.01;46.98
72210;BME280;60113;48.762;12.302;2023-08-21T10:06:17;97739.03;;;34.09;47.00
72210;BME280;60113;48.762;12.302;2023-08-21T10:08:46;97730.78;;;34.32;45.31
72210;BME280;60113;48.762;12.302;2023-08-21T10:11:13;97738.16;;;34.31;46.18
72210;BME280;60113;48.762;12.302;2023-08-21T10:13:39;97740.16;;;34.13;46.56
72210;BME280;60113;48.762;12.302;2023-08-21T10:16:18;97735.75;;;34.07;43.21
72210;BME280;60113;48.762;12.302;2023-08-21T10:18:47;97735.75;;;33.52;46.14
72210;BME280;60113;48.762;12.302;2023-08-21T10:21:21;97733.72;;;33.64;45.79
72210;BME280;60113;48.762;12.302;2023-08-21T10:23:51;97732.75;;;33.31;41.43
72210;BME280;60113;48.762;12.302;2023-08-21T10:26:20;97732.97;;;33.24;45.54
72210;BME280;60113;48.762;12.302;2023-08-21T10:28:50;97727.56;;;33.52;44.04
72210;BME280;60113;48.762;12.302;2023-08-21T10:33:51;97728.88;;;33.99;44.49
72210;BME280;60113;48.762;12.302;2023-08-21T10:39:12;97730.47;;;33.95;40.62
72210;BME280;60113;48.762;12.302;2023-08-21T10:42:11;97718.28;;;34.36;37.61
72210;BME280;60113;48.762;12.302;2023-08-21T10:47:15;97718.53;;;34.72;36.24
72210;BME280;60113;48.762;12.302;2023-08-21T10:49:40;97723.47;;;34.37;43.07
72210;BME280;60113;48.762;12.302;2023-08-21T10:52:11;97714.78;;;34.40;39.18
72210;BME280;60113;48.762;12.302;2023-08-21T10:54:50;97724.94;;;34.17;37.88
72210;BME280;60113;48.762;12.302;2023-08-21T10:57:17;97717.88;;;34.54;43.17
72210;BME280;60113;48.762;12.302;2023-08-21T11:00:09;97718.84;;;34.81;35.90
72210;BME280;60113;48.762;12.302;2023-08-21T11:02:40;97720.06;;;34.20;42.45
72210;BME280;60113;48.762;12.302;2023-08-21T11:05:12;97725.44;;;34.47;43.13
72210;BME280;60113;48.762;12.302;2023-08-21T11:07:43;97718.63;;;34.88;40.88
72210;BME280;60113;48.762;12.302;2023-08-21T11:10:17;97724.75;;;35.16;38.42
72210;BME280;60113;48.762;12.302;2023-08-21T11:12:53;97716.13;;;35.40;42.38
72210;BME280;60113;48.762;12.302;2023-08-21T11:15:20;97718.41;;;35.74;43.01
72210;BME280;60113;48.762;12.302;2023-08-21T11:18:02;97720.53;;;35.51;34.65
72210;BME280;60113;48.762;12.302;2023-08-21T11:20:35;97731.69;;;35.39;40.52
72210;BME280;60113;48.762;12.302;2023-08-21T11:23:02;97721.34;;;35.57;42.26
72210;BME280;60113;48.762;12.302;2023-08-21T11:25:30;97716.50;;;35.75;42.86
72210;BME280;60113;48.762;12.302;2023-08-21T11:27:56;97717.00;;;35.56;41.93
72210;BME280;60113;48.762;12.302;2023-08-21T11:30:23;97710.78;;;35.87;41.97
72210;BME280;60113;48.762;12.302;2023-08-21T11:32:49;97709.41;;;36.10;41.39
72210;BME280;60113;48.762;12.302;2023-08-21T11:35:15;97704.50;;;36.17;41.57
72210;BME280;60113;48.762;12.302;2023-08-21T11:37:56;97703.94;;;36.05;41.67
72210;BME280;60113;48.762;12.302;2023-08-21T11:40:21;97703.69;;;36.17;42.11
72210;BME280;60113;48.762;12.302;2023-08-21T11:43:05;97701.53;;;36.24;41.75
72210;BME280;60113;48.762;12.302;2023-08-21T11:45:32;97695.72;;;36.52;41.92
72210;BME280;60113;48.762;12.302;2023-08-21T11:48:01;97702.28;;;36.66;41.56
72210;BME280;60113;48.762;12.302;2023-08-21T11:50:29;97698.69;;;36.76;41.69
72210;BME280;60113;48.762;12.302;2023-08-21T11:52:55;97699.75;;;36.86;40.92
72210;BME280;60113;48.762;12.302;2023-08-21T11:55:20;97700.25;;;37.03;40.83
72210;BME280;60113;48.762;12.302;2023-08-21T11:57:49;97698.19;;;36.64;33.09
72210;BME280;60113;48.762;12.302;2023-08-21T12:00:16;97705.88;;;36.41;40.97
72210;BME280;60113;48.762;12.302;2023-08-21T12:02:54;97694.94;;;35.89;37.79
72210;BME280;60113;48.762;12.302;2023-08-21T12:05:20;97695.19;;;36.08;41.16
72210;BME280;60113;48.762;12.302;2023-08-21T12:07:48;97699.03;;;36.33;41.36
72210;BME280;60113;48.762;12.302;2023-08-21T12:10:24;97689.72;;;36.50;36.59
72210;BME280;60113;48.762;12.302;2023-08-21T12:12:50;97691.03;;;36.68;41.10
72210;BME280;60113;48.762;12.302;2023-08-21T12:15:18;97694.00;;;36.98;40.57
72210;BME280;60113;48.762;12.302;2023-08-21T12:17:44;97691.44;;;37.22;40.04
72210;BME280;60113;48.762;12.302;2023-08-21T12:20:09;97682.38;;;37.27;39.88
72210;BME280;60113;48.762;12.302;2023-08-21T12:22:40;97679.66;;;37.22;39.79
72210;BME280;60113;48.762;12.302;2023-08-21T12:25:16;97686.16;;;37.36;40.04
72210;BME280;60113;48.762;12.302;2023-08-21T12:27:54;97683.25;;;37.07;36.69
72210;BME280;60113;48.762;12.302;2023-08-21T12:30:19;97682.50;;;36.90;39.32
72210;BME280;60113;48.762;12.302;2023-08-21T12:32:44;97677.28;;;36.94;40.24
72210;BME280;60113;48.762;12.302;2023-08-21T12:35:10;97681.59;;;37.16;39.48
72210;BME280;60113;48.762;12.302;2023-08-21T12:37:43;97676.50;;;36.83;39.06
72210;BME280;60113;48.762;12.302;2023-08-21T12:40:11;97679.31;;;36.62;39.08
72210;BME280;60113;48.762;12.302;2023-08-21T12:42:42;97671.69;;;36.44;38.82
72210;BME280;60113;48.762;12.302;2023-08-21T12:45:08;97669.19;;;36.52;39.00
72210;BME280;60113;48.762;12.302;2023-08-21T12:47:33;97666.13;;;36.75;39.12
72210;BME280;60113;48.762;12.302;2023-08-21T12:49:59;97667.75;;;36.92;39.08
72210;BME280;60113;48.762;12.302;2023-08-21T12:52:24;97670.34;;;37.12;39.55
72210;BME280;60113;48.762;12.302;2023-08-21T12:55:02;97663.75;;;37.29;38.70
72210;BME280;60113;48.762;12.302;2023-08-21T12:57:34;97659.84;;;37.40;38.56
72210;BME280;60113;48.762;12.302;2023-08-21T12:59:59;97665.75;;;37.58;38.48
72210;BME280;60113;48.762;12.302;2023-08-21T13:02:24;97658.78;;;37.76;38.99
72210;BME280;60113;48.762;12.302;2023-08-21T13:04:52;97658.13;;;37.90;38.40
72210;BME280;60113;48.762;12.302;2023-08-21T13:07:17;97655.94;;;37.92;38.62
72210;BME280;60113;48.762;12.302;2023-08-21T13:09:43;97655.44;;;37.85;38.57
72210;BME280;60113;48.762;12.302;2023-08-21T13:12:11;97656.38;;;37.70;36.97
72210;BME280;60113;48.762;12.302;2023-08-21T13:14:36;97656.72;;;37.07;37.81